createdAt,value
2023-12-30T00:02:24.829Z,99307.59
2023-12-30T00:04:51.625Z,99307.06
2023-12-30T00:07:18.466Z,99310.94
2023-12-30T00:09:45.378Z,99308.84
2023-12-30T00:12:12.233Z,99304.69
2023-12-30T00:14:39.074Z,99312.97
2023-12-30T00:17:05.861Z,99309.84
2023-12-30T00:19:33.424Z,99310.63
2023-12-30T00:22:00.324Z,99316.31
2023-12-30T00:24:27.292Z,99311.38
2023-12-30T00:26:54.022Z,99312.16
2023-12-30T00:29:20.825Z,99310.25
2023-12-30T00:31:47.666Z,99306.09
2023-12-30T00:34:14.576Z,99310.81
2023-12-30T00:36:43.509Z,99313.91
2023-12-30T00:39:10.392Z,99312.88
2023-12-30T00:41:38.258Z,99305.44
2023-12-30T00:44:05.744Z,99300.72
2023-12-30T00:46:32.781Z,99309.00
2023-12-30T00:48:59.759Z,99305.16
2023-12-30T00:51:27.221Z,99310.34
2023-12-30T00:53:53.996Z,99308.22
2023-12-30T00:56:20.869Z,99301.94
2023-12-30T00:58:47.877Z,99305.88
2023-12-30T01:01:14.867Z,99304.84
2023-12-30T01:03:42.236Z,99307.38
2023-12-30T01:06:09.393Z,99311.00
2023-12-30T01:08:36.921Z,99302.38
2023-12-30T01:11:04.004Z,99304.19
2023-12-30T01:13:31.262Z,99300.50
2023-12-30T01:15:58.363Z,99312.13
2023-12-30T01:18:25.350Z,99307.22
2023-12-30T01:20:53.186Z,99309.81
2023-12-30T01:23:20.011Z,99325.06
2023-12-30T01:25:46.904Z,99333.44
2023-12-30T01:28:13.875Z,99334.44
2023-12-30T01:30:41.330Z,99332.09
2023-12-30T01:33:08.893Z,99322.22
2023-12-30T01:35:36.548Z,99333.66
2023-12-30T01:38:06.146Z,99334.19
2023-12-30T01:40:34.220Z,99326.94
2023-12-30T01:43:01.568Z,99342.53
2023-12-30T01:45:28.852Z,99327.25
2023-12-30T01:47:55.941Z,99322.59
2023-12-30T01:50:22.939Z,99321.03
2023-12-30T01:52:51.542Z,99321.81
2023-12-30T01:55:20.021Z,99319.53
2023-12-30T01:57:47.065Z,99324.78
2023-12-30T02:00:20.519Z,99311.25
2023-12-30T02:02:49.068Z,99316.19
2023-12-30T02:05:16.938Z,99321.38
2023-12-30T02:07:46.372Z,99314.84
2023-12-30T02:10:14.890Z,99307.59
2023-12-30T02:12:42.391Z,99305.75
2023-12-30T02:15:17.461Z,99306.25
2023-12-30T02:17:45.398Z,99310.41
2023-12-30T02:20:12.541Z,99310.41
2023-12-30T02:22:46.100Z,99305.75
2023-12-30T02:25:13.616Z,99312.25
2023-12-30T02:27:42.987Z,99303.75
2023-12-30T02:30:11.565Z,99304.53
2023-12-30T02:32:38.532Z,99302.47
2023-12-30T02:35:05.797Z,99301.75
2023-12-30T02:37:32.714Z,99303.31
2023-12-30T02:39:59.667Z,99299.22
2023-12-30T02:42:26.480Z,99306.53
2023-12-30T02:44:53.490Z,99296.41
2023-12-30T02:47:20.299Z,99296.72
2023-12-30T02:49:47.187Z,99292.84
2023-12-30T02:52:14.119Z,99302.50
2023-12-30T02:54:40.936Z,99293.44
2023-12-30T02:57:07.817Z,99299.50
2023-12-30T02:59:34.619Z,99284.03
2023-12-30T03:02:01.729Z,99277.03
2023-12-30T03:04:28.730Z,99288.63
2023-12-30T03:06:55.692Z,99276.44
2023-12-30T03:09:22.565Z,99294.00
2023-12-30T03:11:49.521Z,99281.59
2023-12-30T03:14:16.409Z,99277.00
2023-12-30T03:16:43.222Z,99264.50
2023-12-30T03:19:10.146Z,99274.72
2023-12-30T03:21:37.212Z,99268.44
2023-12-30T03:24:04.205Z,99271.19
2023-12-30T03:26:30.982Z,99268.75
2023-12-30T03:28:57.825Z,99280.41
2023-12-30T03:31:26.123Z,99276.75
2023-12-30T03:33:53.675Z,99273.91
2023-12-30T03:36:20.731Z,99284.47
2023-12-30T03:38:48.945Z,99288.06
2023-12-30T03:41:16.729Z,99288.09
2023-12-30T03:43:43.836Z,99285.72
2023-12-30T03:46:10.802Z,99279.53
2023-12-30T03:48:38.365Z,99274.88
2023-12-30T03:51:05.936Z,99268.19
2023-12-30T03:53:34.375Z,99267.75
2023-12-30T03:56:01.608Z,99275.59
2023-12-30T03:58:28.848Z,99284.78
2023-12-30T04:00:56.070Z,99289.66
2023-12-30T04:03:23.188Z,99289.59
2023-12-30T04:05:50.154Z,99282.47
2023-12-30T04:08:16.994Z,99280.06
2023-12-30T04:10:43.909Z,99282.41
2023-12-30T04:13:11.196Z,99291.63
2023-12-30T04:15:38.639Z,99288.94
2023-12-30T04:18:06.362Z,99292.84
2023-12-30T04:20:33.519Z,99301.19
2023-12-30T04:23:00.980Z,99302.81
2023-12-30T04:25:28.353Z,99306.44
2023-12-30T04:27:55.349Z,99308.69
2023-12-30T04:30:22.380Z,99315.28
2023-12-30T04:32:49.527Z,99318.31
2023-12-30T04:35:16.492Z,99315.63
2023-12-30T04:37:43.279Z,99311.44
2023-12-30T04:40:10.521Z,99322.97
2023-12-30T04:42:37.402Z,99317.88
2023-12-30T04:45:04.919Z,99332.78
2023-12-30T04:47:31.786Z,99332.84
2023-12-30T04:49:59.200Z,99336.25
2023-12-30T04:52:26.494Z,99331.03
2023-12-30T04:54:53.392Z,99342.66
2023-12-30T04:57:20.260Z,99340.53
2023-12-30T04:59:47.081Z,99352.94
2023-12-30T05:02:14.008Z,99353.75
2023-12-30T05:04:43.978Z,99348.28
2023-12-30T05:07:11.114Z,99337.22
2023-12-30T05:09:37.929Z,99347.19
2023-12-30T05:12:05.035Z,99359.50
2023-12-30T05:14:31.850Z,99345.41
2023-12-30T05:16:58.835Z,99366.03
2023-12-30T05:19:25.981Z,99369.22
2023-12-30T05:21:53.084Z,99369.78
2023-12-30T05:24:20.262Z,99370.56
2023-12-30T05:26:47.248Z,99367.22
2023-12-30T05:29:14.103Z,99372.94
2023-12-30T05:31:41.318Z,99377.47
2023-12-30T05:34:08.409Z,99373.56
2023-12-30T05:36:37.785Z,99381.47
2023-12-30T05:39:04.996Z,99376.28
2023-12-30T05:41:32.235Z,99390.50
2023-12-30T05:43:59.030Z,99381.25
2023-12-30T05:46:25.897Z,99381.31
2023-12-30T05:48:52.895Z,99390.28
2023-12-30T05:51:21.782Z,99393.72
2023-12-30T05:53:50.822Z,99389.81
2023-12-30T05:56:25.286Z,99384.94
2023-12-30T05:58:54.169Z,99389.69
2023-12-30T06:01:21.213Z,99384.28
2023-12-30T06:03:48.503Z,99391.41
2023-12-30T06:06:15.629Z,99391.69
2023-12-30T06:08:42.734Z,99401.22
2023-12-30T06:11:09.630Z,99400.72
2023-12-30T06:13:36.675Z,99408.34
2023-12-30T06:16:03.838Z,99412.81
2023-12-30T06:18:30.695Z,99413.72
2023-12-30T06:20:58.326Z,99416.84
2023-12-30T06:23:25.286Z,99422.63
2023-12-30T06:25:52.210Z,99413.50
2023-12-30T06:28:19.035Z,99416.16
2023-12-30T06:30:45.839Z,99423.78
2023-12-30T06:33:12.771Z,99422.25
2023-12-30T06:35:39.524Z,99425.16
2023-12-30T06:38:06.459Z,99429.56
2023-12-30T06:40:33.253Z,99431.41
2023-12-30T06:43:00.402Z,99429.84
2023-12-30T06:45:27.494Z,99434.34
2023-12-30T06:47:54.462Z,99436.09
2023-12-30T06:50:22.309Z,99440.03
2023-12-30T06:52:49.785Z,99442.66
2023-12-30T06:55:23.196Z,99455.75
2023-12-30T06:57:54.210Z,99454.63
2023-12-30T07:00:21.730Z,99463.75
2023-12-30T07:02:49.004Z,99470.94
2023-12-30T07:05:16.039Z,99474.84
2023-12-30T07:07:42.903Z,99477.19
2023-12-30T07:10:10.104Z,99484.28
2023-12-30T07:12:36.968Z,99477.72
2023-12-30T07:15:04.286Z,99490.19
2023-12-30T07:17:31.495Z,99493.03
2023-12-30T07:19:58.551Z,99495.63
2023-12-30T07:22:25.819Z,99501.88
2023-12-30T07:24:52.898Z,99501.88
2023-12-30T07:27:19.753Z,99506.03
2023-12-30T07:29:46.545Z,99508.88
2023-12-30T07:32:13.344Z,99513.31
2023-12-30T07:34:40.160Z,99516.53
2023-12-30T07:37:07.081Z,99515.38
2023-12-30T07:39:34.114Z,99513.44
2023-12-30T07:42:01.087Z,99517.78
2023-12-30T07:44:29.114Z,99523.03
2023-12-30T07:46:56.083Z,99523.53
2023-12-30T07:49:23.040Z,99531.91
2023-12-30T07:51:50.199Z,99528.72
2023-12-30T07:54:17.032Z,99527.69
2023-12-30T07:56:43.796Z,99524.81
2023-12-30T07:59:12.409Z,99530.41
2023-12-30T08:01:45.750Z,99527.78
2023-12-30T08:04:13.495Z,99524.41
2023-12-30T08:06:41.432Z,99531.00
2023-12-30T08:09:09.278Z,99523.63
2023-12-30T08:11:46.216Z,99534.41
2023-12-30T08:14:21.752Z,99544.06
2023-12-30T08:16:48.755Z,99530.94
2023-12-30T08:19:15.871Z,99532.50
2023-12-30T08:21:42.792Z,99531.72
2023-12-30T08:24:09.566Z,99539.38
2023-12-30T08:26:37.134Z,99537.81
2023-12-30T08:29:03.975Z,99553.47
2023-12-30T08:31:34.748Z,99538.63
2023-12-30T08:34:01.768Z,99548.31
2023-12-30T08:36:28.597Z,99546.69
2023-12-30T08:38:55.786Z,99548.31
2023-12-30T08:41:22.652Z,99558.31
2023-12-30T08:43:49.519Z,99545.34
2023-12-30T08:46:16.453Z,99555.94
2023-12-30T08:48:43.420Z,99546.28
2023-12-30T08:51:13.050Z,99553.38
2023-12-30T08:53:39.864Z,99560.41
2023-12-30T08:56:07.604Z,99552.69
2023-12-30T08:58:34.460Z,99567.91
2023-12-30T09:01:01.468Z,99572.50
2023-12-30T09:03:28.450Z,99567.41
2023-12-30T09:05:55.247Z,99576.00
2023-12-30T09:08:22.219Z,99575.00
2023-12-30T09:10:49.152Z,99572.88
2023-12-30T09:13:16.027Z,99576.22
2023-12-30T09:15:42.840Z,99582.16
2023-12-30T09:18:14.878Z,99565.50
2023-12-30T09:20:42.823Z,99565.50
2023-12-30T09:23:09.648Z,99579.56
2023-12-30T09:25:36.788Z,99566.63
2023-12-30T09:28:04.032Z,99572.59
2023-12-30T09:30:30.900Z,99562.06
2023-12-30T09:32:57.845Z,99568.41
2023-12-30T09:35:24.791Z,99570.47
2023-12-30T09:37:51.654Z,99564.84
2023-12-30T09:40:19.244Z,99555.00
2023-12-30T09:42:50.329Z,99556.22
2023-12-30T09:45:17.435Z,99564.81
2023-12-30T09:47:46.386Z,99555.25
2023-12-30T09:50:13.310Z,99553.53
2023-12-30T09:52:40.317Z,99557.00
2023-12-30T09:55:07.510Z,99556.63
2023-12-30T09:57:35.012Z,99558.41
2023-12-30T10:00:03.038Z,99549.91
2023-12-30T10:02:32.665Z,99549.91
2023-12-30T10:05:00.580Z,99560.06
2023-12-30T10:07:27.845Z,99558.00
2023-12-30T10:09:54.740Z,99561.81
2023-12-30T10:12:21.629Z,99567.47
2023-12-30T10:14:48.872Z,99568.56
2023-12-30T10:17:15.777Z,99578.13
2023-12-30T10:19:42.600Z,99577.63
2023-12-30T10:22:09.867Z,99566.88
2023-12-30T10:24:36.661Z,99569.81
2023-12-30T10:27:05.182Z,99578.19
2023-12-30T10:29:42.727Z,99570.59
2023-12-30T10:32:21.913Z,99583.94
2023-12-30T10:34:49.414Z,99582.50
2023-12-30T10:37:17.445Z,99583.19
2023-12-30T10:39:46.842Z,99567.09
2023-12-30T10:42:14.070Z,99575.50
2023-12-30T10:44:40.903Z,99584.75
2023-12-30T10:47:10.753Z,99562.13
2023-12-30T10:49:40.248Z,99574.69
2023-12-30T10:52:11.863Z,99580.47
2023-12-30T10:54:42.465Z,99576.66
2023-12-30T10:57:16.076Z,99583.69
2023-12-30T10:59:44.067Z,99584.75
2023-12-30T11:02:11.538Z,99590.03
2023-12-30T11:04:38.708Z,99590.22
2023-12-30T11:07:08.280Z,99578.59
2023-12-30T11:09:37.262Z,99571.69
2023-12-30T11:12:04.384Z,99576.84
2023-12-30T11:14:31.364Z,99572.66
2023-12-30T11:16:58.325Z,99572.19
2023-12-30T11:19:33.226Z,99561.63
2023-12-30T11:22:06.560Z,99559.28
2023-12-30T11:24:34.934Z,99551.38
2023-12-30T11:27:01.825Z,99543.22
2023-12-30T11:29:29.806Z,99549.25
2023-12-30T11:31:58.401Z,99546.81
2023-12-30T11:34:26.256Z,99551.97
2023-12-30T11:36:54.985Z,99554.78
2023-12-30T11:39:27.249Z,99554.97
2023-12-30T11:41:54.108Z,99548.53
2023-12-30T11:44:21.182Z,99548.84
2023-12-30T11:46:48.496Z,99550.66
2023-12-30T11:49:22.453Z,99542.00
2023-12-30T11:51:50.297Z,99537.50
2023-12-30T11:54:17.248Z,99544.63
2023-12-30T11:56:44.747Z,99554.97
2023-12-30T11:59:12.566Z,99543.19
2023-12-30T12:01:39.411Z,99535.88
2023-12-30T12:04:06.302Z,99545.63
2023-12-30T12:06:33.244Z,99544.84
2023-12-30T12:09:02.456Z,99530.88
2023-12-30T12:11:29.259Z,99540.94
2023-12-30T12:13:57.668Z,99538.13
2023-12-30T12:16:25.316Z,99540.00
2023-12-30T12:18:52.358Z,99541.34
2023-12-30T12:21:19.279Z,99539.78
2023-12-30T12:23:46.611Z,99548.28
2023-12-30T12:26:17.279Z,99543.88
2023-12-30T12:28:44.188Z,99542.31
2023-12-30T12:31:14.405Z,99543.09
2023-12-30T12:33:41.384Z,99545.25
2023-12-30T12:36:08.432Z,99549.75
2023-12-30T12:38:35.304Z,99544.69
2023-12-30T12:41:02.084Z,99547.41
2023-12-30T12:43:29.001Z,99534.16
2023-12-30T12:45:55.957Z,99526.84
2023-12-30T12:48:23.184Z,99533.25
2023-12-30T12:50:50.044Z,99528.31
2023-12-30T12:53:16.892Z,99525.16
2023-12-30T12:55:43.695Z,99524.97
2023-12-30T12:58:10.587Z,99536.78
2023-12-30T13:00:37.525Z,99538.84
2023-12-30T13:03:05.303Z,99530.31
2023-12-30T13:05:32.677Z,99523.50
2023-12-30T13:07:59.569Z,99538.22
2023-12-30T13:10:26.495Z,99527.22
2023-12-30T13:12:53.414Z,99526.25
2023-12-30T13:15:20.294Z,99521.47
2023-12-30T13:17:47.316Z,99517.84
2023-12-30T13:20:14.179Z,99522.66
2023-12-30T13:22:41.013Z,99518.03
2023-12-30T13:25:08.253Z,99515.91
2023-12-30T13:27:35.173Z,99516.00
2023-12-30T13:32:53.295Z,99519.31
2023-12-30T13:35:20.247Z,99514.44
2023-12-30T13:37:47.135Z,99509.16
2023-12-30T13:40:14.211Z,99513.16
2023-12-30T13:42:42.029Z,99505.00
2023-12-30T13:45:09.232Z,99508.50
2023-12-30T13:47:36.097Z,99508.50
2023-12-30T13:50:03.279Z,99512.72
2023-12-30T13:52:30.474Z,99511.50
2023-12-30T13:54:57.346Z,99520.72
2023-12-30T13:57:24.200Z,99521.88
2023-12-30T13:59:51.743Z,99530.53
2023-12-30T14:02:19.042Z,99532.19
2023-12-30T14:04:46.576Z,99530.66
2023-12-30T14:07:14.351Z,99525.69
2023-12-30T14:09:41.103Z,99529.09
2023-12-30T14:12:08.166Z,99541.75
2023-12-30T14:14:34.913Z,99541.53
2023-12-30T14:17:01.882Z,99533.75
2023-12-30T14:19:28.908Z,99531.38
2023-12-30T14:21:55.723Z,99531.97
2023-12-30T14:24:22.473Z,99523.81
2023-12-30T14:26:49.503Z,99516.19
2023-12-30T14:29:16.390Z,99532.56
2023-12-30T14:31:43.286Z,99533.72
2023-12-30T14:34:10.269Z,99531.94
2023-12-30T14:36:37.223Z,99533.56
2023-12-30T14:39:05.353Z,99533.09
2023-12-30T14:41:33.611Z,99529.47
2023-12-30T14:44:00.632Z,99540.34
2023-12-30T14:46:27.834Z,99534.38
2023-12-30T14:48:54.878Z,99531.28
2023-12-30T14:51:21.763Z,99526.84
2023-12-30T14:53:48.671Z,99540.00
2023-12-30T14:56:15.540Z,99535.59
2023-12-30T14:58:42.569Z,99540.94
2023-12-30T15:01:09.478Z,99527.84
2023-12-30T15:03:37.031Z,99528.72
2023-12-30T15:06:04.144Z,99535.88
2023-12-30T15:08:30.970Z,99530.16
2023-12-30T15:10:57.843Z,99533.34
2023-12-30T15:13:24.716Z,99531.34
2023-12-30T15:15:51.602Z,99526.66
2023-12-30T15:18:18.471Z,99520.97
2023-12-30T15:20:45.302Z,99525.22
2023-12-30T15:23:12.218Z,99522.09
2023-12-30T15:25:39.115Z,99522.44
2023-12-30T15:28:06.289Z,99518.03
2023-12-30T15:30:33.241Z,99524.69
2023-12-30T15:33:00.480Z,99524.47
2023-12-30T15:35:27.711Z,99523.47
2023-12-30T15:37:54.652Z,99518.78
2023-12-30T15:40:21.570Z,99510.97
2023-12-30T15:42:48.491Z,99517.56
2023-12-30T15:45:15.382Z,99523.38
2023-12-30T15:47:42.434Z,99521.06
2023-12-30T15:50:09.828Z,99527.94
2023-12-30T15:52:36.966Z,99522.47
2023-12-30T15:55:04.050Z,99528.78
2023-12-30T15:57:30.896Z,99525.44
2023-12-30T15:59:57.622Z,99516.06
2023-12-30T16:02:25.273Z,99515.56
2023-12-30T16:04:52.152Z,99519.50
2023-12-30T16:07:19.134Z,99509.56
2023-12-30T16:09:46.143Z,99508.06
2023-12-30T16:12:13.485Z,99505.72
2023-12-30T16:14:40.279Z,99515.69
2023-12-30T16:17:07.246Z,99514.94
2023-12-30T16:19:34.613Z,99510.22
2023-12-30T16:22:02.435Z,99513.13
2023-12-30T16:24:30.107Z,99518.66
2023-12-30T16:26:57.709Z,99515.78
2023-12-30T16:29:25.229Z,99520.28
2023-12-30T16:31:52.787Z,99521.63
2023-12-30T16:34:20.503Z,99524.28
2023-12-30T16:36:48.199Z,99516.72
2023-12-30T16:39:15.651Z,99517.56
2023-12-30T16:41:43.101Z,99517.31
2023-12-30T16:44:10.403Z,99518.94
2023-12-30T16:46:37.515Z,99526.56
2023-12-30T16:49:04.489Z,99527.63
2023-12-30T16:51:31.747Z,99528.16
2023-12-30T16:53:58.661Z,99533.94
2023-12-30T16:56:25.716Z,99529.28
2023-12-30T16:58:52.902Z,99536.66
2023-12-30T17:01:20.052Z,99534.06
2023-12-30T17:03:47.191Z,99538.03
2023-12-30T17:06:14.509Z,99541.47
2023-12-30T17:08:41.564Z,99541.47
2023-12-30T17:11:08.558Z,99547.78
2023-12-30T17:13:42.897Z,99551.72
2023-12-30T17:16:13.643Z,99550.66
2023-12-30T17:18:40.527Z,99543.84
2023-12-30T17:21:07.467Z,99540.75
2023-12-30T17:23:34.985Z,99543.13
2023-12-30T17:26:01.932Z,99552.00
2023-12-30T17:28:28.843Z,99555.69
2023-12-30T17:30:55.891Z,99553.88
2023-12-30T17:33:22.853Z,99561.47
2023-12-30T17:35:50.256Z,99557.03
2023-12-30T17:38:17.208Z,99558.38
2023-12-30T17:40:44.093Z,99562.06
2023-12-30T17:43:11.019Z,99557.88
2023-12-30T17:45:37.845Z,99561.53
2023-12-30T17:48:05.196Z,99556.84
2023-12-30T17:50:32.008Z,99566.28
2023-12-30T17:52:59.013Z,99563.69
2023-12-30T17:55:26.021Z,99572.31
2023-12-30T17:57:53.045Z,99563.44
2023-12-30T18:00:20.185Z,99572.59
2023-12-30T18:02:47.242Z,99573.38
2023-12-30T18:05:14.594Z,99576.00
2023-12-30T18:07:41.883Z,99580.47
2023-12-30T18:10:09.240Z,99577.06
2023-12-30T18:12:36.372Z,99576.31
2023-12-30T18:15:04.773Z,99576.56
2023-12-30T18:17:32.847Z,99581.03
2023-12-30T18:20:00.620Z,99579.94
2023-12-30T18:22:28.156Z,99579.16
2023-12-30T18:24:55.380Z,99591.16
2023-12-30T18:27:22.581Z,99596.13
2023-12-30T18:29:49.942Z,99597.69
2023-12-30T18:32:17.146Z,99595.84
2023-12-30T18:34:44.466Z,99590.88
2023-12-30T18:37:11.683Z,99590.59
2023-12-30T18:39:38.644Z,99598.44
2023-12-30T18:42:05.916Z,99594.53
2023-12-30T18:44:33.036Z,99598.97
2023-12-30T18:47:00.373Z,99594.25
2023-12-30T18:49:27.537Z,99608.38
2023-12-30T18:51:54.875Z,99591.66
2023-12-30T18:54:22.197Z,99595.81
2023-12-30T18:56:49.669Z,99594.25
2023-12-30T18:59:16.926Z,99593.47
2023-12-30T19:01:44.151Z,99587.47
2023-12-30T19:04:12.447Z,99588.75
2023-12-30T19:06:39.889Z,99588.22
2023-12-30T19:09:07.569Z,99583.00
2023-12-30T19:11:34.925Z,99587.94
2023-12-30T19:14:02.989Z,99590.28
2023-12-30T19:16:29.948Z,99594.22
2023-12-30T19:18:57.358Z,99587.94
2023-12-30T19:21:24.916Z,99593.16
2023-12-30T19:23:52.299Z,99586.38
2023-12-30T19:26:19.286Z,99587.19
2023-12-30T19:28:46.306Z,99593.97
2023-12-30T19:31:13.994Z,99582.47
2023-12-30T19:33:41.128Z,99577.53
2023-12-30T19:36:09.695Z,99581.69
2023-12-30T19:38:37.103Z,99578.53
2023-12-30T19:41:04.292Z,99576.97
2023-12-30T19:43:31.831Z,99565.75
2023-12-30T19:45:59.133Z,99567.06
2023-12-30T19:48:26.701Z,99565.75
2023-12-30T19:50:54.155Z,99564.16
2023-12-30T19:53:21.243Z,99573.31
2023-12-30T19:55:48.413Z,99568.84
2023-12-30T19:58:15.782Z,99563.09
2023-12-30T20:00:43.219Z,99571.44
2023-12-30T20:03:10.901Z,99577.16
2023-12-30T20:05:38.400Z,99571.16
2023-12-30T20:08:06.222Z,99567.47
2023-12-30T20:10:33.520Z,99560.94
2023-12-30T20:13:00.905Z,99562.47
2023-12-30T20:15:28.192Z,99558.28
2023-12-30T20:17:55.427Z,99552.97
2023-12-30T20:20:24.570Z,99549.88
2023-12-30T20:22:52.272Z,99551.41
2023-12-30T20:25:19.872Z,99561.06
2023-12-30T20:27:47.468Z,99565.44
2023-12-30T20:30:15.662Z,99572.22
2023-12-30T20:32:44.030Z,99576.84
2023-12-30T20:35:11.797Z,99575.56
2023-12-30T20:37:39.621Z,99568.22
2023-12-30T20:40:09.805Z,99566.84
2023-12-30T20:42:37.883Z,99559.88
2023-12-30T20:45:06.106Z,99560.09
2023-12-30T20:47:34.155Z,99556.16
2023-12-30T20:50:02.595Z,99550.44
2023-12-30T20:52:30.278Z,99557.97
2023-12-30T20:54:58.764Z,99547.81
2023-12-30T20:57:26.421Z,99556.09
2023-12-30T20:59:55.088Z,99546.97
2023-12-30T21:02:22.330Z,99549.03
2023-12-30T21:04:51.298Z,99547.41
2023-12-30T21:07:18.375Z,99544.22
2023-12-30T21:09:45.717Z,99544.22
2023-12-30T21:12:12.655Z,99534.00
2023-12-30T21:14:39.702Z,99540.44
2023-12-30T21:17:06.938Z,99531.00
2023-12-30T21:19:34.761Z,99542.28
2023-12-30T21:22:02.721Z,99529.16
2023-12-30T21:24:29.781Z,99532.50
2023-12-30T21:26:56.816Z,99533.00
2023-12-30T21:29:24.111Z,99537.69
2023-12-30T21:31:54.323Z,99528.00
2023-12-30T21:34:21.753Z,99538.66
2023-12-30T21:36:48.737Z,99532.34
2023-12-30T21:39:17.918Z,99526.56
2023-12-30T21:41:44.893Z,99531.00
2023-12-30T21:44:13.120Z,99521.06
2023-12-30T21:46:47.179Z,99527.06
2023-12-30T21:49:14.365Z,99533.50
2023-12-30T21:51:45.540Z,99531.63
2023-12-30T21:54:14.846Z,99526.72
2023-12-30T21:56:48.117Z,99524.94
2023-12-30T21:59:17.283Z,99518.19
2023-12-30T22:01:44.304Z,99517.59
2023-12-30T22:04:11.977Z,99531.09
2023-12-30T22:06:39.445Z,99525.84
2023-12-30T22:09:06.523Z,99525.72
2023-12-30T22:11:33.923Z,99529.59
2023-12-30T22:14:00.916Z,99524.09
2023-12-30T22:16:27.977Z,99514.13
2023-12-30T22:18:55.144Z,99523.97
2023-12-30T22:21:22.404Z,99522.91
2023-12-30T22:23:49.427Z,99526.75
2023-12-30T22:26:19.604Z,99522.59
2023-12-30T22:28:47.124Z,99528.53
2023-12-30T22:31:14.514Z,99524.06
2023-12-30T22:33:41.695Z,99526.09
2023-12-30T22:36:09.200Z,99519.34
2023-12-30T22:38:36.255Z,99514.53
2023-12-30T22:41:03.253Z,99508.75
2023-12-30T22:43:30.483Z,99506.41
2023-12-30T22:45:58.082Z,99514.66
2023-12-30T22:48:25.134Z,99514.91
2023-12-30T22:50:53.229Z,99508.34
2023-12-30T22:53:20.313Z,99502.63
2023-12-30T22:55:47.994Z,99498.16
2023-12-30T22:58:15.514Z,99503.84
2023-12-30T23:00:42.560Z,99496.78
2023-12-30T23:03:09.942Z,99488.66
2023-12-30T23:05:36.948Z,99486.13
2023-12-30T23:08:04.090Z,99484.56
2023-12-30T23:10:31.460Z,99483.78
2023-12-30T23:12:58.459Z,99476.72
2023-12-30T23:15:25.455Z,99479.78
2023-12-30T23:17:52.701Z,99471.91
2023-12-30T23:20:19.940Z,99475.78
2023-12-30T23:22:46.941Z,99472.41
2023-12-30T23:25:14.491Z,99469.97
2023-12-30T23:27:41.481Z,99466.78
2023-12-30T23:30:08.787Z,99465.91
2023-12-30T23:32:35.982Z,99455.97
2023-12-30T23:35:04.289Z,99454.88
2023-12-30T23:37:32.121Z,99462.06
2023-12-30T23:39:59.413Z,99455.06
2023-12-30T23:42:27.606Z,99459.41
2023-12-30T23:44:54.990Z,99450.50
2023-12-30T23:47:21.991Z,99444.31
2023-12-30T23:49:49.247Z,99451.31
2023-12-30T23:52:16.539Z,99447.69
2023-12-30T23:54:43.531Z,99440.09
2023-12-30T23:57:10.979Z,99436.66
2023-12-30T23:59:39.126Z,99435.56
